Hammonia Bavaria — A8QT7 — position and weather

sailwx.info

Track history (hours):
 
Tides and Currents Weather Stations Pressure Air Temp Water Temp Dewpoint Dewpoint Depression Visibility Wind Speed Wind Dir Waves Ship Positions

Hammonia Bavaria

Last reported at 2014-Jul-26 22:11 UTC. Time now 2014-Aug-01 03:49 UTC.
Position S 35°02' E 019°42'.

Length 209 m; draft 10.7 m.

Type: Cargo ship. MMSI: 636091641.

Date/timePositionNaut miles runAvg speedWind from/ knotsBaromVisibWave heightAir tempDewpointWater temp
2014-Jul-26 22:11S 35°02' E 019°42'6 8.4
2014-Jul-26 21:25S 35°03' E 019°49'24 7.6
2014-Jul-26 18:19S 35°01' E 020°18'95 7.8
2014-Jul-26 06:13S 34°46' E 022°12'122 7.3
2014-Jul-25 13:33S 34°27' E 024°38'2410.1
2014-Jul-25 11:08S 34°24' E 025°07'3910.6
2014-Jul-25 07:27S 34°11' E 025°52'8311.2
2014-Jul-25 00:06S 33°39' E 027°24'1214.6
2014-Jul-24 23:15S 33°34' E 027°38'1114.7
2014-Jul-24 22:29S 33°29' E 027°50'2914.0
2014-Jul-24 20:24S 33°17' E 028°22'3612.7
2014-Jul-24 17:32S 33°02' E 029°01'1211.7
2014-Jul-24 16:32S 32°57' E 029°14'  
Track history (hours):
 
Tides and Currents Weather Stations Pressure Air Temp Water Temp Dewpoint Dewpoint Depression Visibility Wind Speed Wind Dir Waves Ship Positions

Hammonia Bavaria

Last reported at 2014-Jul-26 22:11 UTC. Time now 2014-Aug-01 03:49 UTC.
Position S 35°02' E 019°42'.

Length 209 m; draft 10.7 m.

Type: Cargo ship. MMSI: 636091641.

Date/timePositionNaut miles runAvg speedWind from/ knotsBaromVisibWave heightAir tempDewpointWater temp
2014-Jul-26 22:11S 35°02' E 019°42'6 8.4
2014-Jul-26 21:25S 35°03' E 019°49'24 7.6
2014-Jul-26 18:19S 35°01' E 020°18'95 7.8
2014-Jul-26 06:13S 34°46' E 022°12'122 7.3
2014-Jul-25 13:33S 34°27' E 024°38'2410.1
2014-Jul-25 11:08S 34°24' E 025°07'3910.6
2014-Jul-25 07:27S 34°11' E 025°52'8311.2
2014-Jul-25 00:06S 33°39' E 027°24'1214.6
2014-Jul-24 23:15S 33°34' E 027°38'1114.7
2014-Jul-24 22:29S 33°29' E 027°50'2914.0
2014-Jul-24 20:24S 33°17' E 028°22'3612.7
2014-Jul-24 17:32S 33°02' E 029°01'1211.7
2014-Jul-24 16:32S 32°57' E 029°14'  

Dump ship's entire track history